Aviation Digital Data Service (ADDS)

Output produced by METARs form (0255 UTC 21 January 2018)
found at http://www.aviationweather.gov/adds/metars/
 
KPHD 210253Z AUTO 23007KT 10SM OVC025 06/00 A3010 RMK AO2 SLP200 T00610000 52004
KPHD 210229Z AUTO VRB04KT 10SM BKN026 06/00 A3010 RMK AO2 T00560000
KPHD 210206Z AUTO 23004KT 10SM FEW026 05/M01 A3010 RMK AO2 T00501006
KPHD 210153Z AUTO 23004KT 10SM BKN026 06/M01 A3010 RMK AO2 SLP200 T00561006
KPHD 210053Z AUTO VRB04KT 10SM CLR 05/M02 A3009 RMK AO2 SLP197 T00501022
KPHD 202353Z AUTO 00000KT 10SM CLR 05/M03 A3009 RMK AO2 SLP197 T00501028 10072 20050 52013
KPHD 202253Z AUTO 20003KT 10SM CLR 06/M03 A3007 RMK AO2 SLP191 T00561028
KPHD 202153Z AUTO 24007KT 200V260 10SM CLR 07/M02 A3007 RMK AO2 SLP188 T00671022
KPHD 202053Z AUTO 24007KT 190V270 10SM CLR 07/M03 A3005 RMK AO2 SLP182 T00671028 53005
KPHD 201953Z AUTO 21006G16KT 10SM CLR 07/M03 A3003 RMK AO2 SLP175 T00671028
KPHD 201853Z AUTO 23007KT 190V270 10SM CLR 07/M03 A3003 RMK AO2 SLP174 T00671033
KPHD 201753Z AUTO 22008G17KT 200V260 10SM CLR 06/M03 A3004 RMK AO2 SLP178 T00611033 10061 20006 58008
KPHD 201653Z AUTO 22009G18KT 10SM CLR 05/M04 A3006 RMK AO2 SLP187 T00501039
KPHD 201553Z AUTO 24010G18KT 10SM CLR 04/M04 A3007 RMK AO2 SLP189 T00391044
KPHD 201453Z AUTO 21008G17KT 10SM CLR 03/M05 A3006 RMK AO2 SLP186 T00331050 53014
KPHD 201353Z AUTO VRB05KT 10SM CLR 02/M05 A3005 RMK AO2 SLP183 T00171050
KPHD 201253Z AUTO 21003KT 10SM CLR 02/M05 A3002 RMK AO2 SLP175 T00171050
KPHD 201153Z AUTO 21004KT 10SM CLR 01/M06 A3002 RMK AO2 SLP173 T00111056 10022 20011 51011
KPHD 201053Z AUTO 21006KT 10SM CLR 01/M06 A3000 RMK AO2 SLP168 T00111056
KPHD 200953Z AUTO 20008G14KT 170V240 10SM CLR 02/M06 A3000 RMK AO2 SLP166 T00171056
KPHD 200853Z AUTO 20009KT 10SM CLR 02/M06 A2999 RMK AO2 SLP161 T00221061 50007
KPHD 200753Z AUTO VRB06KT 10SM CLR 02/M07 A2999 RMK AO2 SLP163 T00171067
KPHD 200653Z AUTO 20011G16KT 10SM CLR 02/M07 A2997 RMK AO2 SLP155 T00171072
KPHD 200553Z AUTO 20010G16KT 170V260 10SM CLR 01/M08 A2996 RMK AO2 SLP155 T00111078 10022 20011 58009
KPHD 200453Z AUTO 18005KT 10SM CLR 01/M08 A2997 RMK AO2 SLP157 T00111078 400391072
KPHD 200353Z AUTO VRB06KT 10SM CLR 02/M08 A2999 RMK AO2 SLP166 T00171083